Welcome to the New NWS' Forecast!
Most changes are behind the scenes, but click here for differences you might notice.

Terminal Aerodrome Forecast (TAF)

Issued by National Weather Service (NWS)

                            
000
FTUS42 KMFL 172326
TAFMIA
TAF
KMIA 172326Z 1800/1906 06008KT P6SM SCT027 SCT040
     FM181600 09010KT P6SM SCT025 SCT250
     FM181800 08012KT P6SM BKN030 BKN250
     FM190200 07008KT P6SM FEW035 SCT250=